Time;durP1;ratioP1;P1;durP2;ratioP2;P2;SDS_P1;SDS_P2;PMS_P1;PMS_P2;Temp;Humidity;BMP_temperature;BMP_pressure;BME280_temperature;BME280_humidity;BME280_pressure;Samples;Min_cycle;Max_cycle;Signal;HPM_P1;HPM_P2
2024/01/27 00:01:15;;;;;;;;;;;;;;;;;;5087975;28;19974;-66
2024/01/27 00:03:41;;;;;;;;;;;;;;;;;;5089213;28;20314;-66
2024/01/27 00:06:07;;;;;;;;;;;;;;;;;;5090327;28;20002;-67
2024/01/27 00:08:33;;;;;;;;;;;;;;;;;;5086577;28;20007;-66
2024/01/27 00:10:59;;;;;;;;;;;;;;;;;;5068255;28;19920;-66
2024/01/27 00:13:25;;;;;;;;;;;;;;;;;;5068565;28;19977;-65
2024/01/27 00:15:51;;;;;;;;;;;;;;;;;;5095803;28;19920;-65
2024/01/27 00:18:17;;;;;;;;;;;;;;;;;;5093657;28;19927;-65
2024/01/27 00:20:43;;;;;;;;;;;;;;;;;;5093726;28;19998;-65
2024/01/27 00:23:09;;;;;;;;;;;;;;;;;;5095238;28;20441;-66
2024/01/27 00:25:35;;;;;;;;;;;;;;;;;;5089212;28;19926;-67
2024/01/27 00:28:01;;;;;;;;;;;;;;;;;;5092896;28;20007;-66
2024/01/27 00:30:27;;;;;;;;;;;;;;;;;;5091231;28;19985;-66
2024/01/27 00:32:53;;;;;;;;;;;;;;;;;;5093611;28;19928;-66
2024/01/27 00:35:18;;;;;;;;;;;;;;;;;;5093587;28;19920;-66
2024/01/27 00:37:44;;;;;;;;;;;;;;;;;;5095231;28;19999;-67
2024/01/27 00:40:10;;;;;;;;;;;;;;;;;;5095855;28;19924;-66
2024/01/27 00:42:36;;;;;;;;;;;;;;;;;;5088980;28;20388;-66
2024/01/27 00:45:02;;;;;;;;;;;;;;;;;;5093287;28;20003;-66
2024/01/27 00:47:28;;;;;;;;;;;;;;;;;;5092688;28;19923;-66
2024/01/27 00:49:54;;;;;;;;;;;;;;;;;;5092240;28;20018;-66
2024/01/27 00:52:20;;;;;;;;;;;;;;;;;;5094451;28;20046;-66
2024/01/27 00:54:46;;;;;;;;;;;;;;;;;;5091258;28;19928;-66
2024/01/27 00:57:12;;;;;;;;;;;;;;;;;;5088860;28;19924;-66
2024/01/27 00:59:38;;;;;;;;;;;;;;;;;;5094309;28;20354;-66
2024/01/27 01:02:04;;;;;;;;;;;;;;;;;;5092660;28;19928;-66
2024/01/27 01:04:30;;;;;;;;;;;;;;;;;;5093214;28;19945;-66
2024/01/27 01:06:56;;;;;;;;;;;;;;;;;;5092550;28;20246;-66
2024/01/27 01:09:22;;;;;;;;;;;;;;;;;;5093958;28;19920;-67
2024/01/27 01:11:48;;;;;;;;;;;;;;;;;;5087542;28;19924;-66
2024/01/27 01:14:14;;;;;;;;;;;;;;;;;;5093666;28;20007;-67
2024/01/27 01:16:40;;;;;;;;;;;;;;;;;;5091268;28;20014;-66
2024/01/27 01:19:06;;;;;;;;;;;;;;;;;;5094033;28;20426;-66
2024/01/27 01:21:32;;;;;;;;;;;;;;;;;;5095000;28;19924;-65
2024/01/27 01:23:57;;;;;;;;;;;;;;;;;;5091310;28;19924;-65
2024/01/27 01:26:24;;;;;;;;;;;;;;;;;;5090850;28;19934;-66
2024/01/27 01:28:50;;;;;;;;;;;;;;;;;;5088252;28;20002;-66
2024/01/27 01:31:16;;;;;;;;;;;;;;;;;;5095055;28;20023;-65
2024/01/27 01:33:42;;;;;;;;;;;;;;;;;;5088437;28;19967;-65
2024/01/27 01:36:08;;;;;;;;;;;;;;;;;;5082512;28;20453;-65
2024/01/27 01:38:34;;;;;;;;;;;;;;;;;;5092939;28;20010;-65
2024/01/27 01:41:00;;;;;;;;;;;;;;;;;;5093261;28;19959;-65
2024/01/27 01:43:26;;;;;;;;;;;;;;;;;;5089701;28;19981;-65
2024/01/27 01:45:53;;;;;;;;;;;;;;;;;;5077532;28;19921;-65
2024/01/27 01:48:19;;;;;;;;;;;;;;;;;;5092189;28;19975;-66
2024/01/27 01:50:45;;;;;;;;;;;;;;;;;;5089497;28;19963;-64
2024/01/27 01:53:11;;;;;;;;;;;;;;;;;;5093378;28;19956;-65
2024/01/27 01:55:37;;;;;;;;;;;;;;;;;;5089334;28;20344;-66
2024/01/27 01:58:03;;;;;;;;;;;;;;;;;;5085550;28;19963;-65
2024/01/27 02:00:28;;;;;;;;;;;;;;;;;;5089452;28;20006;-65
2024/01/27 02:02:54;;;;;;;;;;;;;;;;;;5091716;28;19965;-65
2024/01/27 02:05:20;;;;;;;;;;;;;;;;;;5090294;28;19973;-65
2024/01/27 02:07:46;;;;;;;;;;;;;;;;;;5091573;28;19928;-65
2024/01/27 02:10:12;;;;;;;;;;;;;;;;;;5091837;28;20324;-65
2024/01/27 02:12:38;;;;;;;;;;;;;;;;;;5092327;28;19960;-65
2024/01/27 02:15:04;;;;;;;;;;;;;;;;;;5088036;28;20536;-66
2024/01/27 02:17:30;;;;;;;;;;;;;;;;;;5089187;28;20392;-66
2024/01/27 02:19:56;;;;;;;;;;;;;;;;;;5086001;28;19952;-66
2024/01/27 02:22:22;;;;;;;;;;;;;;;;;;5092122;28;20006;-66
2024/01/27 02:24:48;;;;;;;;;;;;;;;;;;5090587;28;19924;-66
2024/01/27 02:27:14;;;;;;;;;;;;;;;;;;5088086;28;19924;-66
2024/01/27 02:29:40;;;;;;;;;;;;;;;;;;5079641;28;20688;-66
2024/01/27 02:32:05;;;;;;;;;;;;;;;;;;5089627;28;20425;-66
2024/01/27 02:34:31;;;;;;;;;;;;;;;;;;5072909;28;20746;-66
2024/01/27 02:36:57;;;;;;;;;;;;;;;;;;5091053;28;19983;-66
2024/01/27 02:39:23;;;;;;;;;;;;;;;;;;5093718;28;19967;-66
2024/01/27 02:41:49;;;;;;;;;;;;;;;;;;5081180;28;19955;-65
2024/01/27 02:44:15;;;;;;;;;;;;;;;;;;5089007;28;19966;-65
2024/01/27 02:46:42;;;;;;;;;;;;;;;;;;5092097;28;19931;-66
2024/01/27 02:49:08;;;;;;;;;;;;;;;;;;5069986;28;19974;-65
2024/01/27 02:51:35;;;;;;;;;;;;;;;;;;5089699;28;19935;-65
2024/01/27 02:54:01;;;;;;;;;;;;;;;;;;5093324;28;19920;-66
2024/01/27 02:56:27;;;;;;;;;;;;;;;;;;5090992;28;19931;-65
2024/01/27 02:58:53;;;;;;;;;;;;;;;;;;5088772;28;19934;-65
2024/01/27 03:01:19;;;;;;;;;;;;;;;;;;5086977;28;20347;-65
2024/01/27 03:03:45;;;;;;;;;;;;;;;;;;5093011;28;19920;-66
2024/01/27 03:06:11;;;;;;;;;;;;;;;;;;5090996;28;19924;-65
2024/01/27 03:08:37;;;;;;;;;;;;;;;;;;5090344;28;19927;-65
2024/01/27 03:11:03;;;;;;;;;;;;;;;;;;5090685;28;19951;-66
2024/01/27 03:13:29;;;;;;;;;;;;;;;;;;5087297;28;20374;-66
2024/01/27 03:15:55;;;;;;;;;;;;;;;;;;5091270;28;19980;-66
2024/01/27 03:18:21;;;;;;;;;;;;;;;;;;5073514;28;19925;-66
2024/01/27 03:20:47;;;;;;;;;;;;;;;;;;5073432;28;19926;-66
2024/01/27 03:23:13;;;;;;;;;;;;;;;;;;5087718;28;19924;-66
2024/01/27 03:25:39;;;;;;;;;;;;;;;;;;5090513;28;19920;-66
2024/01/27 03:28:05;;;;;;;;;;;;;;;;;;5091597;28;19927;-66
2024/01/27 03:30:31;;;;;;;;;;;;;;;;;;5083675;28;19970;-66
2024/01/27 03:32:58;;;;;;;;;;;;;;;;;;5091026;28;19932;-67
2024/01/27 03:35:24;;;;;;;;;;;;;;;;;;5094086;28;19931;-66
2024/01/27 03:37:51;;;;;;;;;;;;;;;;;;5088977;28;19924;-66
2024/01/27 03:40:17;;;;;;;;;;;;;;;;;;5089395;28;19973;-66
2024/01/27 03:42:43;;;;;;;;;;;;;;;;;;5088962;28;19920;-66
2024/01/27 03:45:09;;;;;;;;;;;;;;;;;;5088782;28;20350;-66
2024/01/27 03:47:35;;;;;;;;;;;;;;;;;;5091803;28;19973;-66
2024/01/27 03:50:01;;;;;;;;;;;;;;;;;;5091164;28;19920;-66
2024/01/27 03:52:27;;;;;;;;;;;;;;;;;;5090916;28;19925;-67
2024/01/27 03:54:53;;;;;;;;;;;;;;;;;;5094881;28;19924;-66
2024/01/27 03:57:19;;;;;;;;;;;;;;;;;;5095824;28;19943;-66
2024/01/27 03:59:45;;;;;;;;;;;;;;;;;;5090346;28;20396;-66
2024/01/27 04:02:10;;;;;;;;;;;;;;;;;;5089588;28;19963;-66
2024/01/27 04:04:36;;;;;;;;;;;;;;;;;;5094081;28;19955;-66
2024/01/27 04:07:02;;;;;;;;;;;;;;;;;;5084806;28;19962;-66
2024/01/27 04:09:28;;;;;;;;;;;;;;;;;;5093088;28;20007;-66
2024/01/27 04:11:54;;;;;;;;;;;;;;;;;;5098162;28;19932;-66
2024/01/27 04:14:20;;;;;;;;;;;;;;;;;;5094462;28;19973;-66
2024/01/27 04:16:46;;;;;;;;;;;;;;;;;;5087510;28;19963;-66
2024/01/27 04:19:12;;;;;;;;;;;;;;;;;;5094379;28;19920;-66
2024/01/27 04:21:38;;;;;;;;;;;;;;;;;;5082664;28;19931;-66
2024/01/27 04:24:04;;;;;;;;;;;;;;;;;;5094627;28;19943;-66
2024/01/27 04:26:30;;;;;;;;;;;;;;;;;;5092094;28;19927;-66
2024/01/27 04:28:56;;;;;;;;;;;;;;;;;;5092414;28;19928;-66
2024/01/27 04:31:21;;;;;;;;;;;;;;;;;;5090812;28;19935;-66
2024/01/27 04:33:47;;;;;;;;;;;;;;;;;;5090774;28;19977;-66
2024/01/27 04:36:13;;;;;;;;;;;;;;;;;;5095105;28;19921;-66
2024/01/27 04:38:39;;;;;;;;;;;;;;;;;;5093673;28;19924;-66
2024/01/27 04:41:05;;;;;;;;;;;;;;;;;;5094373;28;20443;-66
2024/01/27 04:43:31;;;;;;;;;;;;;;;;;;5089845;28;19979;-66
2024/01/27 04:45:57;;;;;;;;;;;;;;;;;;5093244;28;19951;-66
2024/01/27 04:48:23;;;;;;;;;;;;;;;;;;5093681;28;20431;-66
2024/01/27 04:50:50;;;;;;;;;;;;;;;;;;5092447;28;20007;-66
2024/01/27 04:53:16;;;;;;;;;;;;;;;;;;5089663;28;19932;-66
2024/01/27 04:55:42;;;;;;;;;;;;;;;;;;5092832;28;19931;-65
2024/01/27 04:58:08;;;;;;;;;;;;;;;;;;5092307;28;19947;-65
2024/01/27 05:00:34;;;;;;;;;;;;;;;;;;5087622;28;20369;-65
2024/01/27 05:03:04;;;;;;;;;;;;;;;;;;5085396;28;19920;-65
2024/01/27 05:05:30;;;;;;;;;;;;;;;;;;5094203;28;19931;-65
2024/01/27 05:07:55;;;;;;;;;;;;;;;;;;5093989;28;19928;-65
2024/01/27 05:10:22;;;;;;;;;;;;;;;;;;5087034;28;19927;-66
2024/01/27 05:12:48;;;;;;;;;;;;;;;;;;5093689;28;19974;-66
2024/01/27 05:15:14;;;;;;;;;;;;;;;;;;5089856;28;19920;-66
2024/01/27 05:17:39;;;;;;;;;;;;;;;;;;5069477;28;19920;-66
2024/01/27 05:20:05;;;;;;;;;;;;;;;;;;5088881;28;20667;-66
2024/01/27 05:22:31;;;;;;;;;;;;;;;;;;5088274;28;19924;-66
2024/01/27 05:24:57;;;;;;;;;;;;;;;;;;5093074;28;19927;-66
2024/01/27 05:27:23;;;;;;;;;;;;;;;;;;5093190;28;20460;-66
2024/01/27 05:29:49;;;;;;;;;;;;;;;;;;5093041;28;19924;-65
2024/01/27 05:32:15;;;;;;;;;;;;;;;;;;5088117;28;19928;-65
2024/01/27 05:34:41;;;;;;;;;;;;;;;;;;5091798;28;19928;-65
2024/01/27 05:37:07;;;;;;;;;;;;;;;;;;5086056;28;19966;-65
2024/01/27 05:39:33;;;;;;;;;;;;;;;;;;5095317;28;19935;-65
2024/01/27 05:41:59;;;;;;;;;;;;;;;;;;5093294;28;20010;-65
2024/01/27 05:44:25;;;;;;;;;;;;;;;;;;5091831;28;20201;-65
2024/01/27 05:46:51;;;;;;;;;;;;;;;;;;5092051;28;20008;-66
2024/01/27 05:49:17;;;;;;;;;;;;;;;;;;5087054;28;20085;-66
2024/01/27 05:51:43;;;;;;;;;;;;;;;;;;5091973;28;20433;-66
2024/01/27 05:54:09;;;;;;;;;;;;;;;;;;5089837;28;19920;-66
2024/01/27 05:56:36;;;;;;;;;;;;;;;;;;5088425;28;19973;-66
2024/01/27 05:59:02;;;;;;;;;;;;;;;;;;5084725;28;19931;-66
2024/01/27 06:01:28;;;;;;;;;;;;;;;;;;5086875;28;20475;-66
2024/01/27 06:03:54;;;;;;;;;;;;;;;;;;5090762;28;19924;-66
2024/01/27 06:06:20;;;;;;;;;;;;;;;;;;5089593;28;19920;-66
2024/01/27 06:08:46;;;;;;;;;;;;;;;;;;5088587;28;19935;-66
2024/01/27 06:11:12;;;;;;;;;;;;;;;;;;5092240;28;20368;-66
2024/01/27 06:13:39;;;;;;;;;;;;;;;;;;5089667;28;20026;-66
2024/01/27 06:16:05;;;;;;;;;;;;;;;;;;5085392;28;19920;-66
2024/01/27 06:18:31;;;;;;;;;;;;;;;;;;5089242;28;19924;-66
2024/01/27 06:20:57;;;;;;;;;;;;;;;;;;5090654;28;20027;-66
2024/01/27 06:23:23;;;;;;;;;;;;;;;;;;5091081;28;20544;-66
2024/01/27 06:25:49;;;;;;;;;;;;;;;;;;5090294;28;20002;-66
2024/01/27 06:28:15;;;;;;;;;;;;;;;;;;5091706;28;19974;-66
2024/01/27 06:30:42;;;;;;;;;;;;;;;;;;5088856;28;19924;-66
2024/01/27 06:33:08;;;;;;;;;;;;;;;;;;5087165;28;19939;-64
2024/01/27 06:35:33;;;;;;;;;;;;;;;;;;5091035;28;19920;-65
2024/01/27 06:37:59;;;;;;;;;;;;;;;;;;5091765;28;20006;-65
2024/01/27 06:40:25;;;;;;;;;;;;;;;;;;5073511;28;20340;-65
2024/01/27 06:42:51;;;;;;;;;;;;;;;;;;5092246;28;20396;-65
2024/01/27 06:45:17;;;;;;;;;;;;;;;;;;5091526;28;20015;-65
2024/01/27 06:47:43;;;;;;;;;;;;;;;;;;5069713;28;20004;-65
2024/01/27 06:50:09;;;;;;;;;;;;;;;;;;5091626;28;19927;-66
2024/01/27 06:52:35;;;;;;;;;;;;;;;;;;5091576;28;19932;-66
2024/01/27 06:55:03;;;;;;;;;;;;;;;;;;5088236;28;20317;-66
2024/01/27 06:57:29;;;;;;;;;;;;;;;;;;5091052;28;20478;-66
2024/01/27 06:59:58;;;;;;;;;;;;;;;;;;5090061;28;19943;-66
2024/01/27 07:02:24;;;;;;;;;;;;;;;;;;5087140;28;19965;-65
2024/01/27 07:04:50;;;;;;;;;;;;;;;;;;5084457;28;20015;-66
2024/01/27 07:07:16;;;;;;;;;;;;;;;;;;5090737;28;19981;-66
2024/01/27 07:09:41;;;;;;;;;;;;;;;;;;5087244;28;20038;-66
2024/01/27 07:12:08;;;;;;;;;;;;;;;;;;5091092;28;19927;-66
2024/01/27 07:14:35;;;;;;;;;;;;;;;;;;5088025;28;19920;-66
2024/01/27 07:17:01;;;;;;;;;;;;;;;;;;5084296;28;20010;-67
2024/01/27 07:19:28;;;;;;;;;;;;;;;;;;5091440;28;20011;-66
2024/01/27 07:21:53;;;;;;;;;;;;;;;;;;5086071;28;19920;-66
2024/01/27 07:24:19;;;;;;;;;;;;;;;;;;5090354;28;19927;-66
2024/01/27 07:26:45;;;;;;;;;;;;;;;;;;5082238;28;19997;-66
2024/01/27 07:29:11;;;;;;;;;;;;;;;;;;5091334;28;20342;-66
2024/01/27 07:31:37;;;;;;;;;;;;;;;;;;5091063;28;19959;-66
2024/01/27 07:34:06;;;;;;;;;;;;;;;;;;5090645;28;19920;-66
2024/01/27 07:36:32;;;;;;;;;;;;;;;;;;5086887;28;19932;-66
2024/01/27 07:38:58;;;;;;;;;;;;;;;;;;5090877;28;20012;-66
2024/01/27 07:41:24;;;;;;;;;;;;;;;;;;5091593;28;19978;-66
2024/01/27 07:43:50;;;;;;;;;;;;;;;;;;5090636;28;20015;-66
2024/01/27 07:46:16;;;;;;;;;;;;;;;;;;5090910;28;20010;-66
2024/01/27 07:48:41;;;;;;;;;;;;;;;;;;5092189;28;20053;-66
2024/01/27 07:51:07;;;;;;;;;;;;;;;;;;5087832;28;20077;-66
2024/01/27 07:53:33;;;;;;;;;;;;;;;;;;5086629;28;19924;-66
2024/01/27 07:55:59;;;;;;;;;;;;;;;;;;5064024;28;20168;-64
2024/01/27 07:58:25;;;;;;;;;;;;;;;;;;5091479;28;20029;-66
2024/01/27 08:00:51;;;;;;;;;;;;;;;;;;5092113;28;19928;-66
2024/01/27 08:03:17;;;;;;;;;;;;;;;;;;5084999;28;19920;-66
2024/01/27 08:05:43;;;;;;;;;;;;;;;;;;5089794;28;19931;-66
2024/01/27 08:08:09;;;;;;;;;;;;;;;;;;5089179;28;20332;-66
2024/01/27 08:10:36;;;;;;;;;;;;;;;;;;5089608;28;19931;-64
2024/01/27 08:13:02;;;;;;;;;;;;;;;;;;5074072;28;19970;-65
2024/01/27 08:15:28;;;;;;;;;;;;;;;;;;5088256;28;19924;-64
2024/01/27 08:17:54;;;;;;;;;;;;;;;;;;5084677;28;20041;-65
2024/01/27 08:20:20;;;;;;;;;;;;;;;;;;5084780;28;20396;-65
2024/01/27 08:22:50;;;;;;;;;;;;;;;;;;5090875;28;19963;-66
2024/01/27 08:25:16;;;;;;;;;;;;;;;;;;5089701;28;19993;-66
2024/01/27 08:27:42;;;;;;;;;;;;;;;;;;5091868;28;20338;-66
2024/01/27 08:30:08;;;;;;;;;;;;;;;;;;5084167;28;20026;-66
2024/01/27 08:32:34;;;;;;;;;;;;;;;;;;5085689;28;20439;-66
2024/01/27 08:35:00;;;;;;;;;;;;;;;;;;5081583;28;20378;-66
2024/01/27 08:37:27;;;;;;;;;;;;;;;;;;5093860;28;19928;-66
2024/01/27 08:39:53;;;;;;;;;;;;;;;;;;5094833;28;20219;-66
2024/01/27 08:42:19;;;;;;;;;;;;;;;;;;5090131;28;19978;-66
2024/01/27 08:44:44;;;;;;;;;;;;;;;;;;5088394;28;19973;-66
2024/01/27 08:47:10;;;;;;;;;;;;;;;;;;5092460;28;19982;-66
2024/01/27 08:49:36;;;;;;;;;;;;;;;;;;5087796;28;20031;-66
2024/01/27 08:52:02;;;;;;;;;;;;;;;;;;5090215;28;19928;-64
2024/01/27 08:54:28;;;;;;;;;;;;;;;;;;5092379;28;20404;-64
2024/01/27 08:56:54;;;;;;;;;;;;;;;;;;5085743;28;19973;-64
2024/01/27 08:59:20;;;;;;;;;;;;;;;;;;5089508;28;19920;-66
2024/01/27 09:01:46;;;;;;;;;;;;;;;;;;5089073;28;19928;-65
2024/01/27 09:04:12;;;;;;;;;;;;;;;;;;5087640;28;19954;-65
2024/01/27 09:06:38;;;;;;;;;;;;;;;;;;5092127;28;19978;-64
2024/01/27 09:09:04;;;;;;;;;;;;;;;;;;5093637;28;20049;-65
2024/01/27 09:11:30;;;;;;;;;;;;;;;;;;5091000;28;19934;-66
2024/01/27 09:13:56;;;;;;;;;;;;;;;;;;5083252;28;19955;-65
2024/01/27 09:16:22;;;;;;;;;;;;;;;;;;5086615;28;19952;-65
2024/01/27 09:18:50;;;;;;;;;;;;;;;;;;5096453;28;20324;-65
2024/01/27 09:21:20;;;;;;;;;;;;;;;;;;5083458;28;20586;-65
2024/01/27 09:23:46;;;;;;;;;;;;;;;;;;5091631;28;19924;-65
2024/01/27 09:26:13;;;;;;;;;;;;;;;;;;5087882;28;19977;-65
2024/01/27 09:28:43;;;;;;;;;;;;;;;;;;5087961;28;20010;-65
2024/01/27 09:31:09;;;;;;;;;;;;;;;;;;5090788;28;19932;-65
2024/01/27 09:33:35;;;;;;;;;;;;;;;;;;5094213;28;19920;-66
2024/01/27 09:36:01;;;;;;;;;;;;;;;;;;5087019;28;19928;-66
2024/01/27 09:38:27;;;;;;;;;;;;;;;;;;5097913;28;20010;-66
2024/01/27 09:40:53;;;;;;;;;;;;;;;;;;5091995;28;20042;-66
2024/01/27 09:43:19;;;;;;;;;;;;;;;;;;5090429;28;19926;-66
2024/01/27 09:45:45;;;;;;;;;;;;;;;;;;5089827;28;20020;-64
2024/01/27 09:48:11;;;;;;;;;;;;;;;;;;5087632;28;20385;-64
2024/01/27 09:50:37;;;;;;;;;;;;;;;;;;5093105;28;19936;-65
2024/01/27 09:53:07;;;;;;;;;;;;;;;;;;5084104;28;19931;-66
2024/01/27 09:55:33;;;;;;;;;;;;;;;;;;5092316;28;19974;-67
2024/01/27 09:58:00;;;;;;;;;;;;;;;;;;5089174;28;20337;-66
2024/01/27 10:00:26;;;;;;;;;;;;;;;;;;5091987;28;19927;-66
2024/01/27 10:02:51;;;;;;;;;;;;;;;;;;5088057;28;19978;-66
2024/01/27 10:05:17;;;;;;;;;;;;;;;;;;5090582;28;20011;-66
2024/01/27 10:07:43;;;;;;;;;;;;;;;;;;5090505;28;19927;-66
2024/01/27 10:10:09;;;;;;;;;;;;;;;;;;5085035;28;19939;-66
2024/01/27 10:12:36;;;;;;;;;;;;;;;;;;5115545;22;20262;-66
2024/01/27 10:15:02;;;;;;;;;;;;;;;;;;5061921;28;19935;-66
2024/01/27 10:17:36;;;;;;;;;;;;;;;;;;5063070;28;19924;-66
2024/01/27 10:20:03;;;;;;;;;;;;;;;;;;5063150;28;19924;-66
2024/01/27 10:22:29;;;;;;;;;;;;;;;;;;5066340;28;19920;-67
2024/01/27 10:24:56;;;;;;;;;;;;;;;;;;5060384;28;20065;-67
2024/01/27 10:27:21;;;;;;;;;;;;;;;;;;5086709;28;19956;-67
2024/01/27 10:29:47;;;;;;;;;;;;;;;;;;5063430;28;20021;-67
2024/01/27 10:32:13;;;;;;;;;;;;;;;;;;5066763;28;19962;-67
2024/01/27 10:34:39;;;;;;;;;;;;;;;;;;5066606;28;19962;-67
2024/01/27 10:37:05;;;;;;;;;;;;;;;;;;5067548;28;20365;-67
2024/01/27 10:39:31;;;;;;;;;;;;;;;;;;5063662;28;19921;-67
2024/01/27 10:41:57;;;;;;;;;;;;;;;;;;5062949;28;19927;-67
2024/01/27 10:44:23;;;;;;;;;;;;;;;;;;5066631;28;19929;-67
2024/01/27 10:46:49;;;;;;;;;;;;;;;;;;5071824;28;20385;-67
2024/01/27 10:49:15;;;;;;;;;;;;;;;;;;5059124;28;19920;-67
2024/01/27 10:51:41;;;;;;;;;;;;;;;;;;5058074;28;19929;-67
2024/01/27 10:54:07;;;;;;;;;;;;;;;;;;5064155;28;19925;-67
2024/01/27 10:56:33;;;;;;;;;;;;;;;;;;5083762;28;19924;-66
2024/01/27 10:58:59;;;;;;;;;;;;;;;;;;5067814;28;20259;-66
2024/01/27 11:01:25;;;;;;;;;;;;;;;;;;5050382;28;19927;-67
2024/01/27 11:03:51;;;;;;;;;;;;;;;;;;5067460;28;19920;-67
2024/01/27 11:06:17;;;;;;;;;;;;;;;;;;5071754;28;20270;-66
2024/01/27 11:08:43;;;;;;;;;;;;;;;;;;5073064;28;19932;-66
2024/01/27 11:11:09;;;;;;;;;;;;;;;;;;5061335;28;19924;-66
2024/01/27 11:13:35;;;;;;;;;;;;;;;;;;5071921;28;19962;-66
2024/01/27 11:16:01;;;;;;;;;;;;;;;;;;5067666;28;19925;-66
2024/01/27 11:18:27;;;;;;;;;;;;;;;;;;5074976;28;19928;-66
2024/01/27 11:20:53;;;;;;;;;;;;;;;;;;5065081;28;19920;-67
2024/01/27 11:23:19;;;;;;;;;;;;;;;;;;5070093;28;19947;-67
2024/01/27 11:25:45;;;;;;;;;;;;;;;;;;5067036;28;20286;-67
2024/01/27 11:28:13;;;;;;;;;;;;;;;;;;5062441;28;19924;-67
2024/01/27 11:30:39;;;;;;;;;;;;;;;;;;5062324;28;19932;-67
2024/01/27 11:33:05;;;;;;;;;;;;;;;;;;5068073;28;19967;-66
2024/01/27 11:35:31;;;;;;;;;;;;;;;;;;5065934;28;19947;-67
2024/01/27 11:37:57;;;;;;;;;;;;;;;;;;5067456;28;19967;-66
2024/01/27 11:40:23;;;;;;;;;;;;;;;;;;5060879;28;20358;-67
2024/01/27 11:42:49;;;;;;;;;;;;;;;;;;5061320;28;19920;-67
2024/01/27 11:45:15;;;;;;;;;;;;;;;;;;5065701;28;19982;-67
2024/01/27 11:47:41;;;;;;;;;;;;;;;;;;5062000;28;19925;-66
2024/01/27 11:50:07;;;;;;;;;;;;;;;;;;5060252;28;19925;-67
2024/01/27 11:52:33;;;;;;;;;;;;;;;;;;5064962;28;20266;-67
2024/01/27 11:54:59;;;;;;;;;;;;;;;;;;5062435;28;19925;-66
2024/01/27 11:57:25;;;;;;;;;;;;;;;;;;5068385;28;19920;-66
2024/01/27 11:59:52;;;;;;;;;;;;;;;;;;5065796;28;20366;-67
2024/01/27 12:02:18;;;;;;;;;;;;;;;;;;5063265;28;19956;-67
2024/01/27 12:04:44;;;;;;;;;;;;;;;;;;5067641;28;19959;-66
2024/01/27 12:07:10;;;;;;;;;;;;;;;;;;5063173;28;19978;-66
2024/01/27 12:09:35;;;;;;;;;;;;;;;;;;5060687;28;19925;-66
2024/01/27 12:12:01;;;;;;;;;;;;;;;;;;5069801;28;19928;-67
2024/01/27 12:14:27;;;;;;;;;;;;;;;;;;5072105;28;19921;-67
2024/01/27 12:16:53;;;;;;;;;;;;;;;;;;5071080;28;19921;-67
2024/01/27 12:19:19;;;;;;;;;;;;;;;;;;5073116;28;20015;-66
2024/01/27 12:21:45;;;;;;;;;;;;;;;;;;5065059;28;19931;-67
2024/01/27 12:24:11;;;;;;;;;;;;;;;;;;5067917;28;20339;-66
2024/01/27 12:26:39;;;;;;;;;;;;;;;;;;5070737;28;19935;-67
2024/01/27 12:29:05;;;;;;;;;;;;;;;;;;5063484;28;19921;-66
2024/01/27 12:31:30;;;;;;;;;;;;;;;;;;5067687;28;19924;-66
2024/01/27 12:33:58;;;;;;;;;;;;;;;;;;5065075;28;19920;-66
2024/01/27 12:36:24;;;;;;;;;;;;;;;;;;5062061;28;19948;-66
2024/01/27 12:38:50;;;;;;;;;;;;;;;;;;5060081;28;19920;-66
2024/01/27 12:41:16;;;;;;;;;;;;;;;;;;5064491;28;19927;-66
2024/01/27 12:43:42;;;;;;;;;;;;;;;;;;5071861;28;19928;-67
2024/01/27 12:46:08;;;;;;;;;;;;;;;;;;5072821;28;20293;-67
2024/01/27 12:48:34;;;;;;;;;;;;;;;;;;5067183;28;19929;-66
2024/01/27 12:51:00;;;;;;;;;;;;;;;;;;5067918;28;19962;-67
2024/01/27 12:53:26;;;;;;;;;;;;;;;;;;5067908;28;19928;-67
2024/01/27 12:55:52;;;;;;;;;;;;;;;;;;5067520;28;20282;-67
2024/01/27 12:58:18;;;;;;;;;;;;;;;;;;5064467;28;19928;-67
2024/01/27 13:00:44;;;;;;;;;;;;;;;;;;5065204;28;19981;-67
2024/01/27 13:03:10;;;;;;;;;;;;;;;;;;5067497;28;20018;-67
2024/01/27 13:05:38;;;;;;;;;;;;;;;;;;5064043;28;19932;-67
2024/01/27 13:08:04;;;;;;;;;;;;;;;;;;5060604;28;19921;-66
2024/01/27 13:10:30;;;;;;;;;;;;;;;;;;5070493;28;19985;-67
2024/01/27 13:12:58;;;;;;;;;;;;;;;;;;5070411;28;19932;-67
2024/01/27 13:15:25;;;;;;;;;;;;;;;;;;5063795;28;19975;-68
2024/01/27 13:17:51;;;;;;;;;;;;;;;;;;5064054;28;19924;-67
2024/01/27 13:20:17;;;;;;;;;;;;;;;;;;5065514;28;19931;-67
2024/01/27 13:22:43;;;;;;;;;;;;;;;;;;5058954;28;20062;-67
2024/01/27 13:25:09;;;;;;;;;;;;;;;;;;5059040;28;20027;-66
2024/01/27 13:27:35;;;;;;;;;;;;;;;;;;5064604;28;19924;-67
2024/01/27 13:30:01;;;;;;;;;;;;;;;;;;5066344;28;19924;-67
2024/01/27 13:32:27;;;;;;;;;;;;;;;;;;5060173;28;20289;-67
2024/01/27 13:34:53;;;;;;;;;;;;;;;;;;5066279;28;19920;-67
2024/01/27 13:37:18;;;;;;;;;;;;;;;;;;5061537;28;19939;-66
2024/01/27 13:39:45;;;;;;;;;;;;;;;;;;5059495;28;19920;-67
2024/01/27 13:42:11;;;;;;;;;;;;;;;;;;5062861;28;20006;-66
2024/01/27 13:44:37;;;;;;;;;;;;;;;;;;5054464;28;20027;-67
2024/01/27 13:47:04;;;;;;;;;;;;;;;;;;5060588;28;19946;-67
2024/01/27 13:49:30;;;;;;;;;;;;;;;;;;5054925;28;20340;-67
2024/01/27 13:51:56;;;;;;;;;;;;;;;;;;5064255;28;19925;-67
2024/01/27 13:54:22;;;;;;;;;;;;;;;;;;5060137;28;19921;-67
2024/01/27 13:56:48;;;;;;;;;;;;;;;;;;5063854;28;19920;-67
2024/01/27 13:59:14;;;;;;;;;;;;;;;;;;5068106;28;20347;-67
2024/01/27 14:01:40;;;;;;;;;;;;;;;;;;5050988;28;19924;-67
2024/01/27 14:04:08;;;;;;;;;;;;;;;;;;5065610;28;19917;-67
2024/01/27 14:06:34;;;;;;;;;;;;;;;;;;5067897;28;19921;-67
2024/01/27 14:09:00;;;;;;;;;;;;;;;;;;5064590;28;20007;-67
2024/01/27 14:11:26;;;;;;;;;;;;;;;;;;5065431;28;19928;-67
2024/01/27 14:13:52;;;;;;;;;;;;;;;;;;5062913;28;20432;-67
2024/01/27 14:16:18;;;;;;;;;;;;;;;;;;5069227;28;19924;-67
2024/01/27 14:18:44;;;;;;;;;;;;;;;;;;5068879;28;19925;-67
2024/01/27 14:21:11;;;;;;;;;;;;;;;;;;5069386;28;19974;-67
2024/01/27 14:23:37;;;;;;;;;;;;;;;;;;5044212;28;19921;-67
2024/01/27 14:26:03;;;;;;;;;;;;;;;;;;5060557;28;19974;-67
2024/01/27 14:28:29;;;;;;;;;;;;;;;;;;5073264;28;19925;-67
2024/01/27 14:30:55;;;;;;;;;;;;;;;;;;5069702;28;19993;-68
2024/01/27 14:33:23;;;;;;;;;;;;;;;;;;5071107;28;20003;-68
2024/01/27 14:35:49;;;;;;;;;;;;;;;;;;5068366;28;19982;-68
2024/01/27 14:38:15;;;;;;;;;;;;;;;;;;5071948;28;20119;-68
2024/01/27 14:40:41;;;;;;;;;;;;;;;;;;5070984;28;21391;-68
2024/01/27 14:43:11;;;;;;;;;;;;;;;;;;5064021;28;20016;-68
2024/01/27 14:45:37;;;;;;;;;;;;;;;;;;5059920;28;19928;-68
2024/01/27 14:48:03;;;;;;;;;;;;;;;;;;5068213;28;20455;-68
2024/01/27 14:50:30;;;;;;;;;;;;;;;;;;5065335;28;19933;-68
2024/01/27 14:52:56;;;;;;;;;;;;;;;;;;5058633;28;19975;-68
2024/01/27 14:55:22;;;;;;;;;;;;;;;;;;5055206;28;20044;-66
2024/01/27 14:57:48;;;;;;;;;;;;;;;;;;5061302;28;20038;-66
2024/01/27 15:00:15;;;;;;;;;;;;;;;;;;5061602;28;20989;-67
2024/01/27 15:02:41;;;;;;;;;;;;;;;;;;5063265;28;20035;-67
2024/01/27 15:05:08;;;;;;;;;;;;;;;;;;5080519;28;19924;-66
2024/01/27 15:07:34;;;;;;;;;;;;;;;;;;5046871;28;19928;-66
2024/01/27 15:10:00;;;;;;;;;;;;;;;;;;5061380;28;19928;-67
2024/01/27 15:12:26;;;;;;;;;;;;;;;;;;5059934;28;20042;-66
2024/01/27 15:14:52;;;;;;;;;;;;;;;;;;5065151;28;19931;-67
2024/01/27 15:17:18;;;;;;;;;;;;;;;;;;5061793;28;19921;-67
2024/01/27 15:19:43;;;;;;;;;;;;;;;;;;5063093;28;19924;-67
2024/01/27 15:22:09;;;;;;;;;;;;;;;;;;5058959;28;20562;-67
2024/01/27 15:24:37;;;;;;;;;;;;;;;;;;5058245;28;19928;-66
2024/01/27 15:27:03;;;;;;;;;;;;;;;;;;5062403;28;19920;-67
2024/01/27 15:29:29;;;;;;;;;;;;;;;;;;5065880;28;19924;-66
2024/01/27 15:31:55;;;;;;;;;;;;;;;;;;5065165;28;19987;-67
2024/01/27 15:34:21;;;;;;;;;;;;;;;;;;5059537;28;19928;-67
2024/01/27 15:36:47;;;;;;;;;;;;;;;;;;5059328;28;19979;-66
2024/01/27 15:39:13;;;;;;;;;;;;;;;;;;5054665;28;20030;-66
2024/01/27 15:41:39;;;;;;;;;;;;;;;;;;5060098;28;19924;-67
2024/01/27 15:44:05;;;;;;;;;;;;;;;;;;5057320;28;19977;-68
2024/01/27 15:46:31;;;;;;;;;;;;;;;;;;5067809;28;19932;-67
2024/01/27 15:48:57;;;;;;;;;;;;;;;;;;5070746;28;20304;-68
2024/01/27 15:51:23;;;;;;;;;;;;;;;;;;5070028;28;19958;-67
2024/01/27 15:53:49;;;;;;;;;;;;;;;;;;5064612;28;19939;-67
2024/01/27 15:56:15;;;;;;;;;;;;;;;;;;5064396;28;19931;-67
2024/01/27 15:58:41;;;;;;;;;;;;;;;;;;5058771;28;19936;-67
2024/01/27 16:01:06;;;;;;;;;;;;;;;;;;5057705;28;19963;-67
2024/01/27 16:03:32;;;;;;;;;;;;;;;;;;5063815;28;19921;-67
2024/01/27 16:05:58;;;;;;;;;;;;;;;;;;5063523;28;20050;-67
2024/01/27 16:08:24;;;;;;;;;;;;;;;;;;5062068;28;19928;-67
2024/01/27 16:10:52;;;;;;;;;;;;;;;;;;5067802;28;19929;-68
2024/01/27 16:13:18;;;;;;;;;;;;;;;;;;5067167;28;19972;-67
2024/01/27 16:15:45;;;;;;;;;;;;;;;;;;5063084;28;20066;-67
2024/01/27 16:18:11;;;;;;;;;;;;;;;;;;5067162;28;20463;-67
2024/01/27 16:20:37;;;;;;;;;;;;;;;;;;5060548;28;19924;-67
2024/01/27 16:23:03;;;;;;;;;;;;;;;;;;5046322;28;19924;-67
2024/01/27 16:25:29;;;;;;;;;;;;;;;;;;5071360;28;20411;-67
2024/01/27 16:27:55;;;;;;;;;;;;;;;;;;5061156;28;20011;-67
2024/01/27 16:30:20;;;;;;;;;;;;;;;;;;5058048;28;19928;-67
2024/01/27 16:32:46;;;;;;;;;;;;;;;;;;5064619;28;19959;-67
2024/01/27 16:35:12;;;;;;;;;;;;;;;;;;5070483;28;19924;-68
2024/01/27 16:37:38;;;;;;;;;;;;;;;;;;5070001;28;19935;-67